Time;durP1;ratioP1;P1;durP2;ratioP2;P2;SDS_P1;SDS_P2;PMS_P1;PMS_P2;Temp;Humidity;BMP_temperature;BMP_pressure;BME280_temperature;BME280_humidity;BME280_pressure;Samples;Min_cycle;Max_cycle;Signal;HPM_P1;HPM_P2
2021/03/20 00:00:32;;;;;;;;;;;;;;;-144.01;100.00;62166.59;5053686;28;19920;-54
2021/03/20 00:02:58;;;;;;;;;;;;;;;-144.01;100.00;62166.59;5038886;28;20312;-57
2021/03/20 00:05:25;;;;;;;;;;;;;;;-144.01;100.00;62166.59;5038799;28;19917;-55
2021/03/20 00:07:53;;;;;;;;;;;;;;;-144.01;100.00;62166.59;5038289;28;19913;-53
2021/03/20 00:10:22;;;;;;;;;;;;;;;-144.01;100.00;62166.59;5050657;28;19924;-55
2021/03/20 00:12:49;;;;;;;;;;;;;;;-144.01;100.00;62166.59;5001479;28;19918;-54
2021/03/20 00:15:18;;;;;;;;;;;;;;;-144.01;100.00;62166.59;5018836;28;19920;-54
2021/03/20 00:17:44;;;;;;;;;;;;;;;-144.01;100.00;62166.59;5018731;28;19924;-53
2021/03/20 00:20:13;;;;;;;;;;;;;;;-144.01;100.00;62166.59;5033880;28;19920;-55
2021/03/20 00:22:40;;;;;;;;;;;;;;;-144.01;100.00;62166.59;5038054;28;19924;-55
2021/03/20 00:25:07;;;;;;;;;;;;;;;-144.01;100.00;62166.59;5037933;28;19913;-54
2021/03/20 00:27:34;;;;;;;;;;;;;;;-144.01;100.00;62166.59;5038465;28;19913;-61
2021/03/20 00:30:02;;;;;;;;;;;;;;;-144.01;100.00;62166.59;5038247;28;19917;-53
2021/03/20 00:32:29;;;;;;;;;;;;;;;-144.01;100.00;62166.59;5038264;28;20283;-53
2021/03/20 00:34:55;;;;;;;;;;;;;;;-144.01;100.00;62166.59;5038042;28;19920;-52
2021/03/20 00:37:22;;;;;;;;;;;;;;;-144.01;100.00;62166.59;5037291;28;19917;-52
2021/03/20 00:39:49;;;;;;;;;;;;;;;-144.01;100.00;62166.59;5037979;28;19924;-56
2021/03/20 00:42:16;;;;;;;;;;;;;;;-144.01;100.00;62166.59;5037760;28;19913;-52
2021/03/20 00:44:43;;;;;;;;;;;;;;;-144.01;100.00;62166.59;5033178;28;19943;-52
2021/03/20 00:47:10;;;;;;;;;;;;;;;-144.01;100.00;62166.59;5025216;28;20307;-54
2021/03/20 00:49:37;;;;;;;;;;;;;;;-144.01;100.00;62166.59;5037885;28;19920;-55
2021/03/20 00:52:04;;;;;;;;;;;;;;;-144.01;100.00;62166.59;5037971;28;19924;-54
2021/03/20 00:54:31;;;;;;;;;;;;;;;-144.01;100.00;62166.59;5036942;28;19920;-57
2021/03/20 00:56:58;;;;;;;;;;;;;;;-144.01;100.00;62166.59;5037989;28;19916;-56
2021/03/20 00:59:25;;;;;;;;;;;;;;;-144.01;100.00;62166.59;5037726;28;19928;-53
2021/03/20 01:01:52;;;;;;;;;;;;;;;-144.01;100.00;62166.59;5036404;28;19923;-54
2021/03/20 01:04:19;;;;;;;;;;;;;;;-144.01;100.00;62166.59;5037519;28;20564;-55
2021/03/20 01:06:46;;;;;;;;;;;;;;;-144.01;100.00;62166.59;5037601;28;20321;-53
2021/03/20 01:09:13;;;;;;;;;;;;;;;-144.01;100.00;62166.59;5036872;28;20315;-54
2021/03/20 01:11:40;;;;;;;;;;;;;;;-144.01;100.00;62166.59;5037374;28;19924;-53
2021/03/20 01:14:07;;;;;;;;;;;;;;;-144.01;100.00;62166.59;5037128;28;20316;-54
2021/03/20 01:16:34;;;;;;;;;;;;;;;-144.01;100.00;62166.59;5053147;28;19920;-53
2021/03/20 01:19:01;;;;;;;;;;;;;;;-144.01;100.00;62166.59;5036965;28;19912;-53
2021/03/20 01:21:28;;;;;;;;;;;;;;;-144.01;100.00;62166.59;5036106;28;19920;-54
2021/03/20 01:23:55;;;;;;;;;;;;;;;-144.01;100.00;62166.59;5037383;28;19924;-53
2021/03/20 01:26:22;;;;;;;;;;;;;;;-144.01;100.00;62166.59;5037004;28;20231;-53
2021/03/20 01:28:49;;;;;;;;;;;;;;;-144.01;100.00;62166.59;5037012;28;19944;-53
2021/03/20 01:31:16;;;;;;;;;;;;;;;-144.01;100.00;62166.59;5037163;28;19943;-53
2021/03/20 01:33:43;;;;;;;;;;;;;;;-144.01;100.00;62166.59;5037222;28;19924;-53
2021/03/20 01:36:10;;;;;;;;;;;;;;;-144.01;100.00;62166.59;5036932;28;19916;-55
2021/03/20 01:38:37;;;;;;;;;;;;;;;-144.01;100.00;62166.59;5036903;28;20311;-56
2021/03/20 01:41:05;;;;;;;;;;;;;;;-144.01;100.00;62166.59;5036509;28;19928;-54
2021/03/20 01:43:33;;;;;;;;;;;;;;;-144.01;100.00;62166.59;5036848;28;19913;-56
2021/03/20 01:46:23;;;;;;;;;;;;;;;-144.01;100.00;62166.59;5050873;28;19920;-54
2021/03/20 01:48:50;;;;;;;;;;;;;;;-144.01;100.00;62166.59;5031258;28;20231;-54
2021/03/20 01:51:17;;;;;;;;;;;;;;;-144.01;100.00;62166.59;5036781;28;20315;-54
2021/03/20 01:53:44;;;;;;;;;;;;;;;-144.01;100.00;62166.59;5028737;28;19917;-55
2021/03/20 01:56:13;;;;;;;;;;;;;;;-144.01;100.00;62166.59;5052110;28;19941;-54
2021/03/20 01:58:40;;;;;;;;;;;;;;;-144.01;100.00;62166.59;5036637;28;19920;-53
2021/03/20 02:01:08;;;;;;;;;;;;;;;-144.01;100.00;62166.59;5052158;28;19980;-49
2021/03/20 02:03:35;;;;;;;;;;;;;;;-144.01;100.00;62166.59;5052257;28;20308;-54
2021/03/20 02:06:03;;;;;;;;;;;;;;;-144.01;100.00;62166.59;5036511;28;19920;-53
2021/03/20 02:08:31;;;;;;;;;;;;;;;-144.01;100.00;62166.59;5028540;28;19920;-54
2021/03/20 02:11:08;;;;;;;;;;;;;;;-144.01;100.00;62166.59;5036482;28;20253;-54
2021/03/20 02:13:42;;;;;;;;;;;;;;;-144.01;100.00;62166.59;5052189;28;19924;-53
2021/03/20 02:16:21;;;;;;;;;;;;;;;-144.01;100.00;62166.59;5051915;28;19913;-54
2021/03/20 02:18:53;;;;;;;;;;;;;;;-144.01;100.00;62166.59;5051835;28;19917;-52
2021/03/20 02:21:22;;;;;;;;;;;;;;;-144.01;100.00;62166.59;5036407;28;19912;-55
2021/03/20 02:23:52;;;;;;;;;;;;;;;-144.01;100.00;62166.59;5051975;28;19943;-53
2021/03/20 02:26:37;;;;;;;;;;;;;;;-144.01;100.00;62166.59;5036074;28;20230;-53
2021/03/20 02:29:22;;;;;;;;;;;;;;;-144.01;100.00;62166.59;5050744;28;19917;-53
2021/03/20 02:32:08;;;;;;;;;;;;;;;-144.01;100.00;62166.59;5036173;28;19913;-54
2021/03/20 02:34:37;;;;;;;;;;;;;;;-144.01;100.00;62166.59;5036371;28;19917;-53
2021/03/20 02:37:17;;;;;;;;;;;;;;;-144.01;100.00;62166.59;5036092;28;19913;-54
2021/03/20 02:39:50;;;;;;;;;;;;;;;-144.01;100.00;62166.59;5043215;28;19928;-55
2021/03/20 02:42:19;;;;;;;;;;;;;;;-144.01;100.00;62166.59;5035544;28;19921;-53
2021/03/20 02:44:54;;;;;;;;;;;;;;;-144.01;100.00;62166.59;5036094;28;20214;-53
2021/03/20 02:47:22;;;;;;;;;;;;;;;-144.01;100.00;62166.59;5031924;28;19917;-54
2021/03/20 02:49:49;;;;;;;;;;;;;;;-144.01;100.00;62166.59;5034739;28;19913;-59
2021/03/20 02:52:36;;;;;;;;;;;;;;;-144.01;100.00;62166.59;5035991;28;19913;-52
2021/03/20 02:55:08;;;;;;;;;;;;;;;-144.01;100.00;62166.59;5035790;28;19912;-53
2021/03/20 02:57:58;;;;;;;;;;;;;;;-144.01;100.00;62166.59;5035953;28;19917;-53
2021/03/20 03:00:27;;;;;;;;;;;;;;;-144.01;100.00;62166.59;5030267;28;19917;-55
2021/03/20 03:02:54;;;;;;;;;;;;;;;-144.01;100.00;62166.59;5035091;28;19943;-53
2021/03/20 03:05:22;;;;;;;;;;;;;;;-144.01;100.00;62166.59;5034947;28;19913;-54
2021/03/20 03:07:53;;;;;;;;;;;;;;;-144.01;100.00;62166.59;5034717;28;19920;-55
2021/03/20 03:10:22;;;;;;;;;;;;;;;-144.01;100.00;62166.59;5035751;28;19928;-53
2021/03/20 03:12:51;;;;;;;;;;;;;;;-144.01;100.00;62166.59;5054681;28;19925;-54
2021/03/20 03:15:20;;;;;;;;;;;;;;;-144.01;100.00;62166.59;5054712;28;19919;-56
2021/03/20 03:17:48;;;;;;;;;;;;;;;-144.01;100.00;62166.59;5035040;28;19929;-56
2021/03/20 03:20:20;;;;;;;;;;;;;;;-144.01;100.00;62166.59;5031635;28;19917;-56
2021/03/20 03:22:49;;;;;;;;;;;;;;;-144.01;100.00;62166.59;5047205;28;19913;-54
2021/03/20 03:25:17;;;;;;;;;;;;;;;-144.01;100.00;62166.59;5031305;28;19917;-51
2021/03/20 03:27:45;;;;;;;;;;;;;;;-144.01;100.00;62166.59;5031159;28;19921;-52
2021/03/20 03:30:13;;;;;;;;;;;;;;;-144.01;100.00;62166.59;5031233;28;19917;-52
2021/03/20 03:32:42;;;;;;;;;;;;;;;-144.01;100.00;62166.59;5025753;28;19917;-54
2021/03/20 03:35:09;;;;;;;;;;;;;;;-144.01;100.00;62166.59;5034679;28;20231;-55
2021/03/20 03:37:36;;;;;;;;;;;;;;;-144.01;100.00;62166.59;5033491;28;19921;-56
2021/03/20 03:40:11;;;;;;;;;;;;;;;-144.01;100.00;62166.59;5035351;28;19921;-54
2021/03/20 03:42:38;;;;;;;;;;;;;;;-144.01;100.00;62166.59;4998896;28;19924;-54
2021/03/20 03:45:08;;;;;;;;;;;;;;;-144.01;100.00;62166.59;5019470;28;20300;-54
2021/03/20 03:47:35;;;;;;;;;;;;;;;-144.01;100.00;62166.59;5018455;28;19917;-54
2021/03/20 03:50:08;;;;;;;;;;;;;;;-144.01;100.00;62166.59;5019040;28;19914;-53
2021/03/20 03:52:35;;;;;;;;;;;;;;;-144.01;100.00;62166.59;5019530;28;19917;-53
2021/03/20 03:55:02;;;;;;;;;;;;;;;-144.01;100.00;62166.59;5019485;28;20387;-54
2021/03/20 03:57:50;;;;;;;;;;;;;;;-144.01;100.00;62166.59;5018205;28;19917;-52
2021/03/20 04:00:33;;;;;;;;;;;;;;;-144.01;100.00;62166.59;5017976;28;19913;-55
2021/03/20 04:03:06;;;;;;;;;;;;;;;-144.01;100.00;62166.59;5019308;28;20323;-57
2021/03/20 04:05:36;;;;;;;;;;;;;;;-144.01;100.00;62166.59;5018216;28;19913;-52
2021/03/20 04:08:06;;;;;;;;;;;;;;;-144.01;100.00;62166.59;5018992;28;19914;-55
2021/03/20 04:10:36;;;;;;;;;;;;;;;-144.01;100.00;62166.59;5023558;28;19917;-53
2021/03/20 04:13:09;;;;;;;;;;;;;;;-144.01;100.00;62166.59;5038804;28;20303;-52
2021/03/20 04:15:36;;;;;;;;;;;;;;;-144.01;100.00;62166.59;5038945;28;19921;-58
2021/03/20 04:18:09;;;;;;;;;;;;;;;-144.01;100.00;62166.59;5038781;28;19916;-54
2021/03/20 04:20:51;;;;;;;;;;;;;;;-144.01;100.00;62166.59;5038489;28;19917;-54
2021/03/20 04:23:21;;;;;;;;;;;;;;;-144.01;100.00;62166.59;5038557;28;19917;-53
2021/03/20 04:25:51;;;;;;;;;;;;;;;-144.01;100.00;62166.59;5037684;28;19920;-53
2021/03/20 04:28:47;;;;;;;;;;;;;;;-144.01;100.00;62166.59;5038342;28;20299;-53
2021/03/20 04:31:23;;;;;;;;;;;;;;;-144.01;100.00;62166.59;5052952;28;19919;-53
2021/03/20 04:34:10;;;;;;;;;;;;;;;-144.01;100.00;62166.59;5053949;28;19917;-54
2021/03/20 04:36:43;;;;;;;;;;;;;;;-144.01;100.00;62166.59;5036745;28;19913;-53
2021/03/20 04:39:10;;;;;;;;;;;;;;;-144.01;100.00;62166.59;5036856;28;19913;-53
2021/03/20 04:41:37;;;;;;;;;;;;;;;-144.01;100.00;62166.59;5037745;28;20258;-54
2021/03/20 04:44:04;;;;;;;;;;;;;;;-144.01;100.00;62166.59;5037952;28;20330;-56
2021/03/20 04:46:32;;;;;;;;;;;;;;;-144.01;100.00;62166.59;5036666;28;19913;-52
2021/03/20 04:49:02;;;;;;;;;;;;;;;-144.01;100.00;62166.59;5036732;28;19920;-53
2021/03/20 04:51:36;;;;;;;;;;;;;;;-144.01;100.00;62166.59;5037629;28;19913;-54
2021/03/20 04:54:21;;;;;;;;;;;;;;;-144.01;100.00;62166.59;5036406;28;19948;-54
2021/03/20 04:56:56;;;;;;;;;;;;;;;-144.01;100.00;62166.59;5036413;28;19913;-54
2021/03/20 04:59:41;;;;;;;;;;;;;;;-144.01;100.00;62166.59;5036739;28;19955;-54
2021/03/20 05:02:12;;;;;;;;;;;;;;;-144.01;100.00;62166.59;5037620;28;19920;-55
2021/03/20 05:04:39;;;;;;;;;;;;;;;-144.01;100.00;62166.59;5052768;28;19917;-53
2021/03/20 05:07:06;;;;;;;;;;;;;;;-144.01;100.00;62166.59;5052248;28;19917;-52
2021/03/20 05:09:33;;;;;;;;;;;;;;;-144.01;100.00;62166.59;5037666;28;19920;-54
2021/03/20 05:12:00;;;;;;;;;;;;;;;-144.01;100.00;62166.59;5036203;28;20311;-54
2021/03/20 05:14:27;;;;;;;;;;;;;;;-144.01;100.00;62166.59;5036617;28;19921;-55
2021/03/20 05:16:58;;;;;;;;;;;;;;;-144.01;100.00;62166.59;5037235;28;19917;-53
2021/03/20 05:19:26;;;;;;;;;;;;;;;-144.01;100.00;62166.59;5052640;28;19917;-55
2021/03/20 05:21:56;;;;;;;;;;;;;;;-144.01;100.00;62166.59;5037043;28;19913;-54
2021/03/20 05:24:25;;;;;;;;;;;;;;;-144.01;100.00;62166.59;5037306;28;20238;-53
2021/03/20 05:26:52;;;;;;;;;;;;;;;-144.01;100.00;62166.59;5037272;28;19913;-55
2021/03/20 05:29:19;;;;;;;;;;;;;;;-144.01;100.00;62166.59;5024298;28;19924;-55
2021/03/20 05:31:46;;;;;;;;;;;;;;;-144.01;100.00;62166.59;5017429;28;19917;-54
2021/03/20 05:34:30;;;;;;;;;;;;;;;-144.01;100.00;62166.59;5017425;28;19924;-54
2021/03/20 05:36:57;;;;;;;;;;;;;;;-144.01;100.00;62166.59;5029044;28;19981;-52
2021/03/20 05:39:25;;;;;;;;;;;;;;;-144.01;100.00;62166.59;5017013;28;20431;-53
2021/03/20 05:41:52;;;;;;;;;;;;;;;-144.01;100.00;62166.59;5012341;28;19917;-54
2021/03/20 05:44:25;;;;;;;;;;;;;;;-144.01;100.00;62166.59;5017336;28;19913;-54
2021/03/20 05:46:53;;;;;;;;;;;;;;;-144.01;100.00;62166.59;5017453;28;19921;-56
2021/03/20 05:49:39;;;;;;;;;;;;;;;-144.01;100.00;62166.59;5016954;28;19917;-53
2021/03/20 05:52:09;;;;;;;;;;;;;;;-144.01;100.00;62166.59;5017133;28;19914;-55
2021/03/20 05:54:40;;;;;;;;;;;;;;;-144.01;100.00;62166.59;5017141;28;19918;-52
2021/03/20 05:57:25;;;;;;;;;;;;;;;-144.01;100.00;62166.59;5016991;28;20325;-51
2021/03/20 05:59:54;;;;;;;;;;;;;;;-144.01;100.00;62166.59;5016919;28;19913;-57
2021/03/20 06:02:23;;;;;;;;;;;;;;;-144.01;100.00;62166.59;5032554;28;19913;-54
2021/03/20 06:04:56;;;;;;;;;;;;;;;-144.01;100.00;62166.59;5032411;28;19917;-57
2021/03/20 06:07:29;;;;;;;;;;;;;;;-144.01;100.00;62166.59;5031749;28;19917;-53
2021/03/20 06:09:59;;;;;;;;;;;;;;;-144.01;100.00;62166.59;5016613;28;20512;-54
2021/03/20 06:12:26;;;;;;;;;;;;;;;-144.01;100.00;62166.59;5015519;28;19920;-53
2021/03/20 06:14:53;;;;;;;;;;;;;;;-144.01;100.00;62166.59;5016436;28;19948;-51
2021/03/20 06:17:35;;;;;;;;;;;;;;;-144.01;100.00;62166.59;5015998;28;19914;-54
2021/03/20 06:20:06;;;;;;;;;;;;;;;-144.01;100.00;62166.59;5016619;28;19913;-53
2021/03/20 06:22:39;;;;;;;;;;;;;;;-144.01;100.00;62166.59;5015815;28;19920;-52
2021/03/20 06:25:24;;;;;;;;;;;;;;;-144.01;100.00;62166.59;5016534;28;19920;-50
2021/03/20 06:27:51;;;;;;;;;;;;;;;-144.01;100.00;62166.59;5014914;28;19917;-51
2021/03/20 06:30:26;;;;;;;;;;;;;;;-144.01;100.00;62166.59;5015500;28;19920;-54
2021/03/20 06:32:53;;;;;;;;;;;;;;;-144.01;100.00;62166.59;5008806;28;19913;-56
2021/03/20 06:35:20;;;;;;;;;;;;;;;-144.01;100.00;62166.59;5019494;28;20227;-52
2021/03/20 06:37:48;;;;;;;;;;;;;;;-144.01;100.00;62166.59;5034728;28;19919;-52
2021/03/20 06:40:26;;;;;;;;;;;;;;;-144.01;100.00;62166.59;5035018;28;19924;-53
2021/03/20 06:42:53;;;;;;;;;;;;;;;-144.01;100.00;62166.59;5035273;28;19921;-54
2021/03/20 06:45:23;;;;;;;;;;;;;;;-144.01;100.00;62166.59;5036220;28;19920;-56
2021/03/20 06:47:53;;;;;;;;;;;;;;;-144.01;100.00;62166.59;5035538;28;19920;-54
2021/03/20 06:50:23;;;;;;;;;;;;;;;-144.01;100.00;62166.59;5035887;28;19921;-54
2021/03/20 06:52:51;;;;;;;;;;;;;;;-144.01;100.00;62166.59;5035899;28;19924;-54
2021/03/20 06:55:33;;;;;;;;;;;;;;;-144.01;100.00;62166.59;5035041;28;19920;-55
2021/03/20 06:58:15;;;;;;;;;;;;;;;-144.01;100.00;62166.59;5035658;28;19917;-53
2021/03/20 07:00:42;;;;;;;;;;;;;;;-144.01;100.00;62166.59;5051528;28;19920;-54
2021/03/20 07:03:21;;;;;;;;;;;;;;;-144.01;100.00;62166.59;5036004;28;19924;-54
2021/03/20 07:06:07;;;;;;;;;;;;;;;-144.01;100.00;62166.59;5035573;28;19920;-53
2021/03/20 07:08:37;;;;;;;;;;;;;;;-144.01;100.00;62166.59;5037574;28;19913;-54
2021/03/20 07:11:04;;;;;;;;;;;;;;;-144.01;100.00;62166.59;5028757;28;19917;-56
2021/03/20 07:13:35;;;;;;;;;;;;;;;-144.01;100.00;62166.59;5015192;28;19917;-54
2021/03/20 07:16:04;;;;;;;;;;;;;;;-144.01;100.00;62166.59;5015177;28;20297;-54
2021/03/20 07:18:36;;;;;;;;;;;;;;;-144.01;100.00;62166.59;5025696;28;20227;-57
2021/03/20 07:21:18;;;;;;;;;;;;;;;-144.01;100.00;62166.59;5039719;28;19913;-54
2021/03/20 07:23:57;;;;;;;;;;;;;;;-144.01;100.00;62166.59;5039807;28;19920;-52
2021/03/20 07:26:24;;;;;;;;;;;;;;;-144.01;100.00;62166.59;5022390;28;19917;-54
2021/03/20 07:28:52;;;;;;;;;;;;;;;-144.01;100.00;62166.59;5021783;28;19924;-52
2021/03/20 07:31:20;;;;;;;;;;;;;;;-144.01;100.00;62166.59;5039126;28;19916;-53
2021/03/20 07:33:48;;;;;;;;;;;;;;;-144.01;100.00;62166.59;5039095;28;19928;-55
2021/03/20 07:36:27;;;;;;;;;;;;;;;-144.01;100.00;62166.59;5038288;28;19919;-54
2021/03/20 07:39:06;;;;;;;;;;;;;;;-144.01;100.00;62166.59;5038687;28;19913;-54
2021/03/20 07:41:49;;;;;;;;;;;;;;;-144.01;100.00;62166.59;5038969;28;19916;-55
2021/03/20 07:44:16;;;;;;;;;;;;;;;-144.01;100.00;62166.59;5039196;28;20246;-53
2021/03/20 07:46:43;;;;;;;;;;;;;;;-144.01;100.00;62166.59;5038208;28;19920;-56
2021/03/20 07:49:22;;;;;;;;;;;;;;;-144.01;100.00;62166.59;5038523;28;19940;-56
2021/03/20 07:51:53;;;;;;;;;;;;;;;-144.01;100.00;62166.59;5054628;28;19920;-54
2021/03/20 07:54:21;;;;;;;;;;;;;;;-144.01;100.00;62166.59;5039025;28;20303;-55
2021/03/20 07:56:48;;;;;;;;;;;;;;;-144.01;100.00;62166.59;5054469;28;20302;-59
2021/03/20 07:59:18;;;;;;;;;;;;;;;-144.01;100.00;62166.59;5053963;28;19912;-54
2021/03/20 08:02:03;;;;;;;;;;;;;;;-144.01;100.00;62166.59;5054534;28;19924;-54
2021/03/20 08:04:50;;;;;;;;;;;;;;;-144.01;100.00;62166.59;5054405;28;19913;-55
2021/03/20 08:07:27;;;;;;;;;;;;;;;-144.01;100.00;62166.59;5054059;28;19920;-52
2021/03/20 08:10:12;;;;;;;;;;;;;;;-144.01;100.00;62166.59;5037147;28;19921;-56
2021/03/20 08:12:58;;;;;;;;;;;;;;;-144.01;100.00;62166.59;5018678;28;19920;-55
2021/03/20 08:15:44;;;;;;;;;;;;;;;-144.01;100.00;62166.59;5018322;28;19928;-55
2021/03/20 08:18:20;;;;;;;;;;;;;;;-144.01;100.00;62166.59;5016115;28;19946;-54
2021/03/20 08:21:05;;;;;;;;;;;;;;;-144.01;100.00;62166.59;5011054;28;19917;-56
2021/03/20 08:23:51;;;;;;;;;;;;;;;-144.01;100.00;62166.59;5001473;28;19913;-55
2021/03/20 08:26:27;;;;;;;;;;;;;;;-144.01;100.00;62166.59;5018650;28;20320;-55
2021/03/20 08:28:55;;;;;;;;;;;;;;;-144.01;100.00;62166.59;5022827;28;19928;-54
2021/03/20 08:31:41;;;;;;;;;;;;;;;-144.01;100.00;62166.59;5033751;28;20250;-60
2021/03/20 08:34:10;;;;;;;;;;;;;;;-144.01;100.00;62166.59;5018177;28;19928;-54
2021/03/20 08:36:56;;;;;;;;;;;;;;;-144.01;100.00;62166.59;5018383;28;19928;-56
2021/03/20 08:39:37;;;;;;;;;;;;;;;-144.01;100.00;62166.59;5033137;28;20350;-55
2021/03/20 08:42:04;;;;;;;;;;;;;;;-144.01;100.00;62166.59;5036454;28;19917;-56
2021/03/20 08:44:30;;;;;;;;;;;;;;;-144.01;100.00;62166.59;5037669;28;19920;-56
2021/03/20 08:47:00;;;;;;;;;;;;;;;-144.01;100.00;62166.59;5026064;28;19913;-55
2021/03/20 08:49:36;;;;;;;;;;;;;;;-144.01;100.00;62166.59;5017687;28;19918;-55
2021/03/20 08:52:03;;;;;;;;;;;;;;;-144.01;100.00;62166.59;5018149;28;19944;-54
2021/03/20 08:54:35;;;;;;;;;;;;;;;-144.01;100.00;62166.59;5017958;28;20217;-54
2021/03/20 08:57:05;;;;;;;;;;;;;;;-144.01;100.00;62166.59;5017722;28;19920;-53
2021/03/20 08:59:36;;;;;;;;;;;;;;;-144.01;100.00;62166.59;5015204;28;19920;-52
2021/03/20 09:02:08;;;;;;;;;;;;;;;-144.01;100.00;62166.59;5032489;28;19921;-51
2021/03/20 09:04:35;;;;;;;;;;;;;;;-144.01;100.00;62166.59;5033316;28;19924;-53
2021/03/20 09:07:06;;;;;;;;;;;;;;;-144.01;100.00;62166.59;5032672;28;19991;-52
2021/03/20 09:09:41;;;;;;;;;;;;;;;-144.01;100.00;62166.59;5032027;28;19913;-53
2021/03/20 09:12:20;;;;;;;;;;;;;;;-144.01;100.00;62166.59;5032284;28;19923;-54
2021/03/20 09:14:47;;;;;;;;;;;;;;;-144.01;100.00;62166.59;5016691;28;19921;-54
2021/03/20 09:17:14;;;;;;;;;;;;;;;-144.01;100.00;62166.59;5015878;28;19941;-58
2021/03/20 09:20:05;;;;;;;;;;;;;;;-144.01;100.00;62166.59;5017290;28;19920;-55
2021/03/20 09:22:32;;;;;;;;;;;;;;;-144.01;100.00;62166.59;4999333;28;19920;-51
2021/03/20 09:25:02;;;;;;;;;;;;;;;-144.01;100.00;62166.59;5032832;28;19913;-52
2021/03/20 09:27:48;;;;;;;;;;;;;;;-144.01;100.00;62166.59;4997628;28;19914;-54
2021/03/20 09:30:19;;;;;;;;;;;;;;;-144.01;100.00;62166.59;5013256;28;19917;-57
2021/03/20 09:32:47;;;;;;;;;;;;;;;-144.01;100.00;62166.59;5017546;28;19924;-58
2021/03/20 09:35:23;;;;;;;;;;;;;;;-144.01;100.00;62166.59;5017311;28;20350;-59
2021/03/20 09:37:51;;;;;;;;;;;;;;;-144.01;100.00;62166.59;4999747;28;19918;-72
2021/03/20 09:40:38;;;;;;;;;;;;;;;-144.01;100.00;62166.59;5014130;28;19921;-68
2021/03/20 09:43:15;;;;;;;;;;;;;;;-144.01;100.00;62166.59;5016228;28;19920;-56
2021/03/20 09:45:42;;;;;;;;;;;;;;;-144.01;100.00;62166.59;5016025;28;19920;-60
2021/03/20 09:48:09;;;;;;;;;;;;;;;-144.01;100.00;62166.59;5016795;28;19918;-74
2021/03/20 09:50:36;;;;;;;;;;;;;;;-144.01;100.00;62166.59;5015854;28;19921;-67
2021/03/20 09:53:09;;;;;;;;;;;;;;;-144.01;100.00;62166.59;5016917;28;19921;-68
2021/03/20 09:55:39;;;;;;;;;;;;;;;-144.01;100.00;62166.59;5016995;28;19929;-69
2021/03/20 09:58:08;;;;;;;;;;;;;;;-144.01;100.00;62166.59;5016859;28;19913;-50
2021/03/20 10:00:48;;;;;;;;;;;;;;;-144.01;100.00;62166.59;5016406;28;19913;-64
2021/03/20 10:03:33;;;;;;;;;;;;;;;-144.01;100.00;62166.59;5016596;28;19913;-62
2021/03/20 10:06:30;;;;;;;;;;;;;;;-144.01;100.00;62166.59;5016716;28;19924;-65
2021/03/20 10:09:06;;;;;;;;;;;;;;;-144.01;100.00;62166.59;5003340;28;19913;-69
2021/03/20 10:11:33;;;;;;;;;;;;;;;-144.01;100.00;62166.59;5016242;28;19917;-60
2021/03/20 10:14:01;;;;;;;;;;;;;;;-144.01;100.00;62166.59;5016625;28;19917;-54
2021/03/20 10:16:29;;;;;;;;;;;;;;;-144.01;100.00;62166.59;5015401;28;19921;-60
2021/03/20 10:19:07;;;;;;;;;;;;;;;-144.01;100.00;62166.59;5015388;28;19921;-62
2021/03/20 10:21:34;;;;;;;;;;;;;;;-144.01;100.00;62166.59;5016553;28;19917;-67
2021/03/20 10:24:04;;;;;;;;;;;;;;;-144.01;100.00;62166.59;5016420;28;19917;-57
2021/03/20 10:26:41;;;;;;;;;;;;;;;-144.01;100.00;62166.59;4999126;28;19921;-55
2021/03/20 10:29:18;;;;;;;;;;;;;;;-144.01;100.00;62166.59;5018496;28;19921;-50
2021/03/20 10:31:46;;;;;;;;;;;;;;;-144.01;100.00;62166.59;5035521;28;19916;-52
2021/03/20 10:34:15;;;;;;;;;;;;;;;-144.01;100.00;62166.59;5036177;28;19928;-59
2021/03/20 10:36:43;;;;;;;;;;;;;;;-144.01;100.00;62166.59;5036032;28;19913;-55
2021/03/20 10:39:20;;;;;;;;;;;;;;;-144.01;100.00;62166.59;5035781;28;19913;-51
2021/03/20 10:41:47;;;;;;;;;;;;;;;-144.01;100.00;62166.59;5035743;28;19917;-54
2021/03/20 10:44:14;;;;;;;;;;;;;;;-144.01;100.00;62166.59;5035223;28;19920;-64
2021/03/20 10:46:41;;;;;;;;;;;;;;;-144.01;100.00;62166.59;5035858;28;19920;-54
2021/03/20 10:49:14;;;;;;;;;;;;;;;-144.01;100.00;62166.59;5034513;28;19975;-60
2021/03/20 10:51:42;;;;;;;;;;;;;;;-144.01;100.00;62166.59;5035529;28;19917;-51
2021/03/20 10:54:09;;;;;;;;;;;;;;;-144.01;100.00;62166.59;5035193;28;20235;-70
2021/03/20 10:56:36;;;;;;;;;;;;;;;-144.01;100.00;62166.59;5035592;28;20201;-69
2021/03/20 10:59:11;;;;;;;;;;;;;;;-144.01;100.00;62166.59;5035692;28;19913;-73
2021/03/20 11:01:38;;;;;;;;;;;;;;;-144.01;100.00;62166.59;5036077;28;19913;-55
2021/03/20 11:04:05;;;;;;;;;;;;;;;-144.01;100.00;62166.59;5035904;28;20218;-54
2021/03/20 11:06:32;;;;;;;;;;;;;;;-144.01;100.00;62166.59;5034757;28;19924;-56
2021/03/20 11:09:04;;;;;;;;;;;;;;;-144.01;100.00;62166.59;5035695;28;19924;-54
2021/03/20 11:11:36;;;;;;;;;;;;;;;-144.01;100.00;62166.59;5035545;28;19927;-66
2021/03/20 11:14:10;;;;;;;;;;;;;;;-144.01;100.00;62166.59;5035730;28;20337;-52
2021/03/20 11:16:48;;;;;;;;;;;;;;;-144.01;100.00;62166.59;5035564;28;19923;-56
2021/03/20 11:19:19;;;;;;;;;;;;;;;-144.01;100.00;62166.59;5034499;28;19943;-45
2021/03/20 11:21:48;;;;;;;;;;;;;;;-144.01;100.00;62166.59;5018471;28;20239;-54
2021/03/20 11:24:21;;;;;;;;;;;;;;;-144.01;100.00;62166.59;5035864;28;19920;-50
2021/03/20 11:26:48;;;;;;;;;;;;;;;-144.01;100.00;62166.59;5035661;28;19913;-72
2021/03/20 11:29:28;;;;;;;;;;;;;;;-144.01;100.00;62166.59;5035278;28;19947;-67
2021/03/20 11:31:57;;;;;;;;;;;;;;;-144.01;100.00;62166.59;5047474;28;20307;-73
2021/03/20 11:34:32;;;;;;;;;;;;;;;-144.01;100.00;62166.59;5032179;28;19913;-73
2021/03/20 11:36:59;;;;;;;;;;;;;;;-144.01;100.00;62166.59;5040757;28;20311;-70
2021/03/20 11:39:27;;;;;;;;;;;;;;;-144.01;100.00;62166.59;5035303;28;19917;-64
2021/03/20 11:42:12;;;;;;;;;;;;;;;-144.01;100.00;62166.59;5051161;28;19924;-71
2021/03/20 11:44:49;;;;;;;;;;;;;;;-144.01;100.00;62166.59;5035798;28;19917;-71
2021/03/20 11:47:20;;;;;;;;;;;;;;;-144.01;100.00;62166.59;5051167;28;20307;-71
2021/03/20 11:49:49;;;;;;;;;;;;;;;-144.01;100.00;62166.59;5051208;28;19917;-71
2021/03/20 11:52:18;;;;;;;;;;;;;;;-144.01;100.00;62166.59;5051357;28;19913;-71
2021/03/20 11:54:44;;;;;;;;;;;;;;;-144.01;100.00;62166.59;5035634;28;19921;-68
2021/03/20 11:57:20;;;;;;;;;;;;;;;-144.01;100.00;62166.59;5035505;28;20246;-69
2021/03/20 11:59:48;;;;;;;;;;;;;;;-144.01;100.00;62166.59;5035388;28;19944;-71
2021/03/20 12:02:24;;;;;;;;;;;;;;;-144.01;100.00;62166.59;5035839;28;20204;-72
2021/03/20 12:05:10;;;;;;;;;;;;;;;-144.01;100.00;62166.59;5037828;28;19912;-71
2021/03/20 12:07:37;;;;;;;;;;;;;;;-144.01;100.00;62166.59;5038901;28;19917;-70
2021/03/20 12:10:30;;;;;;;;;;;;;;;-144.01;100.00;62166.59;5044053;28;19917;-70
2021/03/20 12:12:57;;;;;;;;;;;;;;;-144.01;100.00;62166.59;5024505;28;19925;-71
2021/03/20 12:15:24;;;;;;;;;;;;;;;-144.01;100.00;62166.59;5053882;28;19921;-71
2021/03/20 12:17:52;;;;;;;;;;;;;;;-144.01;100.00;62166.59;5037909;28;19919;-72
2021/03/20 12:20:25;;;;;;;;;;;;;;;-144.01;100.00;62166.59;5054720;28;19924;-71
2021/03/20 12:22:54;;;;;;;;;;;;;;;-144.01;100.00;62166.59;5039129;28;20283;-71
2021/03/20 12:25:30;;;;;;;;;;;;;;;-144.01;100.00;62166.59;5054000;28;19924;-55
2021/03/20 12:28:17;;;;;;;;;;;;;;;-144.01;100.00;62166.59;5038196;28;20321;-57
2021/03/20 12:30:44;;;;;;;;;;;;;;;-144.01;100.00;62166.59;5038628;28;19923;-72
2021/03/20 12:33:11;;;;;;;;;;;;;;;-144.01;100.00;62166.59;5038604;28;19913;-73
2021/03/20 12:35:45;;;;;;;;;;;;;;;-144.01;100.00;62166.59;5038880;28;19917;-71
2021/03/20 12:38:14;;;;;;;;;;;;;;;-144.01;100.00;62166.59;5037899;28;19917;-72
2021/03/20 12:40:42;;;;;;;;;;;;;;;-144.01;100.00;62166.59;5037752;28;19928;-72